Time;durP1;ratioP1;P1;durP2;ratioP2;P2;SDS_P1;SDS_P2;PMS_P1;PMS_P2;Temp;Humidity;BMP_temperature;BMP_pressure;BME280_temperature;BME280_humidity;BME280_pressure;Samples;Min_cycle;Max_cycle;Signal;HPM_P1;HPM_P2
2023/04/29 00:01:23;;;;;;;47.50;23.70;;;11.80;99.90;;;12.34;93.68;101456.41;5112124;28;20729;-75
2023/04/29 00:03:52;;;;;;;41.95;23.73;;;12.00;99.90;;;12.47;93.29;101451.06;5086096;28;20074;-75
2023/04/29 00:06:21;;;;;;;46.10;23.75;;;12.10;99.90;;;12.61;92.91;101454.56;5111988;28;20047;-75
2023/04/29 00:08:50;;;;;;;40.72;24.88;;;12.30;99.90;;;12.53;92.57;101458.13;5097870;28;20101;-75
2023/04/29 00:11:19;;;;;;;47.78;26.45;;;12.30;99.90;;;12.63;92.60;101458.09;5116438;28;20093;-75
2023/04/29 00:13:49;;;;;;;49.15;26.27;;;12.40;99.90;;;12.47;92.33;101463.44;5089834;28;20066;-75
2023/04/29 00:16:17;;;;;;;45.45;26.02;;;12.20;99.90;;;12.04;92.55;101465.28;5115981;28;20032;-75
2023/04/29 00:18:46;;;;;;;50.50;26.52;;;12.00;99.90;;;12.17;92.93;101453.78;5112080;28;20497;-75
2023/04/29 00:21:14;;;;;;;51.75;29.05;;;11.90;99.90;;;12.17;93.29;101452.91;5112683;28;20102;-75
2023/04/29 00:23:43;;;;;;;45.20;28.02;;;11.90;99.90;;;12.25;92.47;101462.59;5116385;28;20043;-75
2023/04/29 00:26:11;;;;;;;52.05;27.60;;;12.00;99.90;;;11.72;93.22;101456.47;5115847;28;20047;-75
2023/04/29 00:28:44;;;;;;;47.78;27.17;;;11.70;99.90;;;11.99;93.73;101464.41;5115980;28;20369;-76
2023/04/29 00:31:14;;;;;;;44.88;27.83;;;11.70;99.90;;;11.92;93.55;101472.38;5097530;28;20054;-75
2023/04/29 00:33:42;;;;;;;43.40;27.63;;;11.70;99.90;;;12.05;93.45;101461.75;5115761;28;20372;-75
2023/04/29 00:36:10;;;;;;;45.40;27.17;;;11.80;99.90;;;12.09;92.92;101470.59;5094202;28;20074;-74
2023/04/29 00:38:39;;;;;;;41.95;26.65;;;11.80;99.90;;;12.24;92.67;101481.16;5097439;28;20048;-76
2023/04/29 00:41:07;;;;;;;45.13;25.60;;;11.90;99.90;;;12.09;92.18;101478.53;5115530;28;20035;-75
2023/04/29 00:43:36;;;;;;;43.60;26.40;;;11.90;99.90;;;12.10;93.01;101480.31;5115730;28;20114;-75
2023/04/29 00:46:04;;;;;;;46.50;27.05;;;11.80;99.90;;;12.12;92.22;101478.53;5115478;28;20560;-75
2023/04/29 00:48:35;;;;;;;38.28;26.38;;;11.90;99.90;;;12.19;92.08;101483.84;5115353;28;20481;-75
2023/04/29 00:51:05;;;;;;;47.45;28.08;;;11.90;99.90;;;12.36;91.76;101492.66;5097221;28;20093;-75
2023/04/29 00:53:34;;;;;;;43.97;26.33;;;12.10;99.90;;;12.37;91.16;101496.19;5115337;28;20130;-75
2023/04/29 00:56:03;;;;;;;44.03;26.60;;;12.20;99.90;;;12.37;90.83;101493.53;5097128;28;20059;-75
2023/04/29 00:58:34;;;;;;;33.17;24.83;;;12.10;99.90;;;12.28;90.61;101494.44;5115355;28;20507;-75
2023/04/29 01:01:03;;;;;;;;;;;12.10;99.90;;;12.22;90.86;101493.56;5111890;28;20039;-75
2023/04/29 01:03:32;;;;;;;36.28;24.83;;;12.00;99.90;;;12.01;91.13;101488.25;5115116;28;19920;-75
2023/04/29 01:06:14;;;;;;;38.55;24.00;;;11.90;99.90;;;12.10;91.23;101494.44;5088996;28;20072;-75
2023/04/29 01:08:55;;;;;;;37.58;24.17;;;11.90;99.90;;;12.01;91.23;101493.56;5115321;28;20035;-75
2023/04/29 01:11:24;;;;;;;;;;;11.90;99.90;;;12.09;91.87;101497.09;5095211;28;20094;-76
2023/04/29 01:14:00;;;;;;;42.00;24.30;;;11.90;99.90;;;12.02;91.29;101498.00;5114984;28;19920;-75
2023/04/29 01:16:37;;;;;;;36.15;23.65;;;11.90;99.90;;;12.02;91.63;101500.66;5085225;28;20052;-76
2023/04/29 01:19:20;;;;;;;39.60;24.63;;;11.90;99.90;;;11.85;92.60;101505.94;5086051;28;20519;-75
2023/04/29 01:21:50;;;;;;;41.97;24.83;;;11.70;99.90;;;12.08;92.03;101509.47;5115074;28;20449;-75
2023/04/29 01:24:19;;;;;;;37.65;24.92;;;11.80;99.90;;;12.21;91.17;101503.31;5115318;28;20035;-75
2023/04/29 01:26:57;;;;;;;37.17;24.33;;;11.90;99.90;;;11.93;91.07;101501.53;5090937;28;20044;-75
2023/04/29 01:29:51;;;;;;;35.17;23.90;;;11.80;99.90;;;12.06;91.22;101511.25;5089665;28;20054;-75
2023/04/29 01:32:34;;;;;;;35.35;22.70;;;11.80;99.90;;;12.14;90.90;101511.22;5096796;28;20051;-75
2023/04/29 01:35:15;;;;;;;34.20;24.25;;;11.90;99.90;;;12.26;90.26;101508.56;5111471;28;20040;-75
2023/04/29 01:37:52;;;;;;;38.75;23.33;;;12.00;99.90;;;12.19;90.12;101488.25;5096597;28;20040;-75
2023/04/29 01:40:32;;;;;;;33.63;23.00;;;12.10;99.90;;;12.41;89.89;101516.50;5076281;28;20075;-75
2023/04/29 01:43:12;;;;;;;35.33;24.05;;;12.10;99.90;;;12.31;89.67;101515.63;5087833;28;20104;-75
2023/04/29 01:45:45;;;;;;;33.33;22.67;;;12.10;99.90;;;12.29;88.92;101512.09;5084834;28;20048;-75
2023/04/29 01:48:16;;;;;;;39.75;24.73;;;12.00;99.90;;;12.19;89.14;101520.97;5088105;28;20139;-75
2023/04/29 01:50:45;;;;;;;34.03;23.60;;;12.00;99.90;;;12.24;89.03;101523.59;5096150;28;20066;-75
2023/04/29 01:53:15;;;;;;;33.38;22.85;;;12.00;99.90;;;12.42;88.62;101515.66;5087834;28;20054;-75
2023/04/29 01:55:46;;;;;;;33.20;23.83;;;12.10;99.90;;;12.25;89.36;101513.00;5096172;28;20089;-75
2023/04/29 01:58:18;;;;;;;33.08;23.92;;;12.00;99.90;;;12.42;88.68;101520.94;5084235;28;20052;-75
2023/04/29 02:01:02;;;;;;;34.83;24.45;;;12.10;99.90;;;12.45;88.73;101520.94;5078486;28;20043;-75
2023/04/29 02:03:33;;;;;;;;;;;12.20;99.90;;;12.36;88.95;101519.19;5096157;28;20050;-75
2023/04/29 02:06:03;;;;;;;35.78;24.05;;;12.10;99.90;;;12.44;88.92;101521.84;5097410;28;20023;-76
2023/04/29 02:08:31;;;;;;;36.80;24.77;;;12.10;99.90;;;12.57;88.37;101527.13;5110354;28;20139;-75
2023/04/29 02:11:02;;;;;;;34.30;24.10;;;12.30;99.90;;;12.61;87.83;101528.88;5095954;28;20039;-75
2023/04/29 02:13:41;;;;;;;;;;;12.40;99.90;;;12.67;87.77;101533.28;5088118;28;20130;-75
2023/04/29 02:16:13;;;;;;;35.80;24.23;;;12.50;99.90;;;12.68;87.24;101520.00;5095916;28;19926;-75
2023/04/29 02:18:47;;;;;;;32.42;23.55;;;12.50;99.90;;;12.73;87.38;101540.34;5084161;28;20044;-75
2023/04/29 02:21:15;;;;;;;34.35;23.35;;;12.50;99.90;;;12.22;88.39;101515.66;5114154;28;20040;-75
2023/04/29 02:23:43;;;;;;;35.75;24.17;;;12.20;99.90;;;12.41;88.54;101535.97;5114390;28;20035;-75
2023/04/29 02:26:14;;;;;;;33.45;23.85;;;12.20;99.90;;;12.50;88.47;101540.41;5114266;28;20043;-75
2023/04/29 02:28:43;;;;;;;28.77;22.33;;;12.30;99.90;;;12.37;88.52;101530.66;5095942;28;20043;-75
2023/04/29 02:31:11;;;;;;;33.28;23.13;;;12.20;99.90;;;12.48;88.36;101544.81;5087207;28;20624;-76
2023/04/29 02:33:40;;;;;;;33.90;22.67;;;12.20;99.90;;;12.48;88.02;101548.38;5095895;28;20047;-75
2023/04/29 02:36:09;;;;;;;31.13;22.45;;;12.30;99.90;;;12.44;87.99;101543.94;5114137;28;20040;-75
2023/04/29 02:38:38;;;;;;;30.90;22.98;;;12.20;99.90;;;12.48;87.69;101569.59;5109553;28;20120;-75
2023/04/29 02:41:06;;;;;;;31.60;22.83;;;12.30;99.90;;;12.47;87.51;101556.31;5093134;28;20449;-75
2023/04/29 02:43:36;;;;;;;29.08;22.33;;;12.20;99.90;;;12.54;87.38;101560.75;5095387;28;20071;-75
2023/04/29 02:46:05;;;;;;;34.15;23.02;;;12.30;99.90;;;12.62;87.31;101562.47;5113378;28;20069;-75
2023/04/29 02:48:34;;;;;;;29.83;22.52;;;12.40;99.90;;;12.68;87.02;101569.53;5095233;28;20054;-75
2023/04/29 02:51:02;;;;;;;35.88;22.80;;;12.40;99.90;;;12.72;86.96;101575.75;5086891;28;20059;-75
2023/04/29 02:53:30;;;;;;;26.70;20.98;;;12.40;99.90;;;12.63;87.20;101574.88;5094851;28;20067;-75
2023/04/29 02:55:59;;;;;;;33.55;21.95;;;12.40;99.90;;;12.78;87.08;101576.59;5113531;28;20062;-75
2023/04/29 02:58:27;;;;;;;28.20;21.42;;;12.50;99.90;;;12.63;87.05;101576.66;5094970;28;20385;-75
2023/04/29 03:00:57;;;;;;;29.60;20.30;;;12.40;99.90;;;12.68;86.22;101593.44;5082876;28;20055;-75
2023/04/29 03:03:25;;;;;;;27.70;20.47;;;12.40;99.90;;;12.77;85.50;101582.81;5083001;28;20467;-75
2023/04/29 03:05:54;;;;;;;26.98;19.80;;;12.50;99.90;;;12.82;84.91;101589.00;5086827;28;20047;-76
2023/04/29 03:08:23;;;;;;;26.55;19.77;;;12.60;99.90;;;12.90;84.15;101591.63;5113160;28;20502;-75
2023/04/29 03:10:51;;;;;;;28.52;20.33;;;12.60;99.90;;;12.82;83.96;101593.41;5112949;28;20496;-76
2023/04/29 03:13:20;;;;;;;26.60;20.60;;;12.60;99.90;;;12.83;83.95;101590.78;5094599;28;20062;-75
2023/04/29 03:15:48;;;;;;;25.58;19.30;;;12.60;99.90;;;12.85;83.58;101582.81;5086606;28;20130;-75
2023/04/29 03:18:18;;;;;;;26.83;20.02;;;12.60;99.90;;;12.94;83.52;101590.72;5094539;28;20066;-75
2023/04/29 03:20:48;;;;;;;27.40;20.33;;;12.60;99.90;;;12.76;83.40;101566.88;5112986;28;20082;-76
2023/04/29 03:23:16;;;;;;;29.55;19.58;;;12.60;99.90;;;12.70;83.24;101581.03;5112971;28;20090;-75
2023/04/29 03:25:45;;;;;;;28.88;19.92;;;12.50;99.90;;;12.67;83.75;101594.34;5112677;28;20044;-76
2023/04/29 03:28:14;;;;;;;25.63;18.77;;;12.50;99.90;;;12.49;84.68;101591.69;5094507;28;20441;-75
2023/04/29 03:30:42;;;;;;;28.15;19.48;;;12.30;99.90;;;12.76;84.45;101596.06;5086326;28;20079;-75
2023/04/29 03:33:10;;;;;;;28.13;20.67;;;12.40;99.90;;;12.79;83.88;101588.13;5112501;28;20047;-75
2023/04/29 03:35:40;;;;;;;31.45;20.13;;;12.50;99.90;;;12.87;83.62;101595.19;5094480;28;20046;-75
2023/04/29 03:38:18;;;;;;;26.33;19.30;;;12.60;99.90;;;12.87;83.75;101597.84;5112395;28;20055;-75
2023/04/29 03:40:48;;;;;;;27.33;19.67;;;12.60;99.90;;;12.92;83.21;101601.38;5082815;28;20170;-75
2023/04/29 03:43:18;;;;;;;28.83;19.92;;;12.70;99.90;;;12.84;83.25;101595.19;5097752;28;20071;-75
2023/04/29 03:45:47;;;;;;;27.25;20.13;;;12.60;99.90;;;12.94;83.40;101598.69;5098729;28;20082;-75
2023/04/29 03:48:18;;;;;;;28.38;20.17;;;12.70;99.90;;;12.93;83.14;101600.47;5098678;28;20044;-75
2023/04/29 03:50:48;;;;;;;31.42;19.98;;;12.70;99.90;;;13.05;82.82;101608.44;5098458;28;20051;-76
2023/04/29 03:53:17;;;;;;;29.73;20.42;;;12.70;99.90;;;13.11;82.56;101607.53;5098451;28;20447;-76
2023/04/29 03:55:47;;;;;;;27.38;18.88;;;12.80;99.90;;;13.05;82.56;101610.19;5095272;28;20040;-76
2023/04/29 03:58:16;;;;;;;28.88;18.00;;;12.80;99.90;;;13.09;82.25;101607.53;5103225;28;20055;-75
2023/04/29 04:00:45;;;;;;;32.42;19.80;;;12.80;99.90;;;13.15;81.97;101612.84;5090395;28;20044;-75
2023/04/29 04:03:19;;;;;;;24.90;18.77;;;12.80;99.90;;;13.12;81.74;101612.88;5098496;28;20481;-75
2023/04/29 04:05:49;;;;;;;24.80;18.45;;;12.90;99.90;;;12.99;82.19;101605.75;5116738;28;20058;-76
2023/04/29 04:08:18;;;;;;;26.02;17.40;;;12.70;99.90;;;13.09;81.77;101610.19;5098616;28;20499;-75
2023/04/29 04:11:01;;;;;;;31.52;18.98;;;12.80;99.90;;;13.14;81.63;101615.50;5091858;28;20040;-76
2023/04/29 04:13:35;;;;;;;27.92;18.80;;;12.90;99.90;;;13.19;81.61;101622.56;5098374;28;20053;-76
2023/04/29 04:16:04;;;;;;;28.20;19.98;;;12.90;99.90;;;13.15;81.53;101622.59;5116316;28;20039;-76
2023/04/29 04:18:33;;;;;;;24.65;18.60;;;12.90;99.90;;;13.26;81.35;101629.63;5116419;28;20042;-75
2023/04/29 04:21:07;;;;;;;25.13;19.00;;;13.00;99.90;;;13.22;81.24;101634.97;5097912;28;20523;-76
2023/04/29 04:23:39;;;;;;;26.98;18.60;;;13.00;99.90;;;13.18;81.07;101626.09;5078571;28;20147;-75
2023/04/29 04:26:09;;;;;;;24.67;18.48;;;13.00;99.90;;;12.79;81.20;101566.88;5097973;28;20043;-75
2023/04/29 04:28:52;;;;;;;28.42;18.90;;;12.90;99.90;;;13.22;81.28;101645.59;5112452;28;20080;-75
2023/04/29 04:31:42;;;;;;;23.52;18.35;;;12.90;99.90;;;13.16;81.60;101629.69;5080976;28;20047;-75
2023/04/29 04:34:14;;;;;;;28.02;18.48;;;13.00;99.90;;;13.21;81.71;101654.44;5086034;28;20048;-75
2023/04/29 04:36:46;;;;;;;27.52;18.27;;;12.90;99.90;;;13.18;81.81;101643.84;5089620;28;20458;-75
2023/04/29 04:39:14;;;;;;;30.58;20.98;;;12.90;99.90;;;13.20;81.58;101656.22;5097723;28;20063;-75
2023/04/29 04:41:43;;;;;;;28.65;19.13;;;13.00;99.90;;;13.28;81.79;101665.03;5089440;28;20146;-75
2023/04/29 04:44:12;;;;;;;27.83;18.90;;;13.00;99.90;;;13.34;81.71;101665.03;5097478;28;20062;-75
2023/04/29 04:46:49;;;;;;;27.50;18.67;;;13.00;99.90;;;13.38;81.81;101660.59;5084960;28;20040;-75
2023/04/29 04:49:30;;;;;;;;;;;13.10;99.90;;;13.19;81.85;101664.19;5087636;28;20098;-76
2023/04/29 04:52:00;;;;;;;32.00;20.42;;;13.00;99.90;;;13.32;82.54;101671.22;5097116;28;20071;-75
2023/04/29 04:54:29;;;;;;;28.02;19.42;;;13.00;99.90;;;13.30;82.56;101676.56;5097043;28;20342;-75
2023/04/29 04:57:06;;;;;;;29.23;19.30;;;13.10;99.90;;;13.28;82.52;101675.69;5097327;28;20109;-75
2023/04/29 04:59:35;;;;;;;32.45;20.02;;;13.10;99.90;;;13.06;82.44;101667.78;5097135;28;20082;-75
2023/04/29 05:02:03;;;;;;;30.52;19.50;;;13.00;99.90;;;13.19;83.35;101678.38;5089046;28;20047;-75
2023/04/29 05:04:31;;;;;;;30.85;19.23;;;12.90;99.90;;;13.12;83.22;101663.34;5097070;28;20069;-75
2023/04/29 05:07:01;;;;;;;29.48;19.40;;;13.00;99.90;;;13.21;83.18;101683.66;5088989;28;20044;-75
2023/04/29 05:09:37;;;;;;;31.45;19.73;;;13.00;99.90;;;13.21;83.54;101687.22;5093530;28;20091;-75
2023/04/29 05:12:06;;;;;;;30.13;20.25;;;13.00;99.90;;;13.28;83.68;101699.59;5076892;28;20544;-76
2023/04/29 05:14:34;;;;;;;29.55;19.25;;;13.00;99.90;;;13.31;83.47;101688.97;5097174;28;20152;-76
2023/04/29 05:17:03;;;;;;;31.65;19.73;;;13.00;99.90;;;13.23;84.03;101697.84;5115391;28;20131;-75
2023/04/29 05:19:32;;;;;;;30.42;20.65;;;13.00;99.90;;;13.27;84.60;101697.84;5097297;28;20046;-76
2023/04/29 05:22:02;;;;;;;36.40;20.83;;;13.00;99.90;;;13.32;84.73;101700.47;5089048;28;20496;-76
2023/04/29 05:24:31;;;;;;;37.47;20.95;;;13.10;99.90;;;13.30;85.28;101705.78;5096945;28;20071;-76
2023/04/29 05:27:00;;;;;;;36.70;20.30;;;13.00;99.90;;;13.32;85.46;101716.41;5088846;28;20059;-75
2023/04/29 05:29:28;;;;;;;39.08;20.98;;;13.00;99.90;;;13.34;85.47;101715.53;5096691;28;20509;-75
2023/04/29 05:32:00;;;;;;;33.75;22.25;;;13.10;99.90;;;13.35;85.49;101722.63;5084484;28;20094;-75
2023/04/29 05:34:29;;;;;;;36.22;21.77;;;13.10;99.90;;;13.35;85.66;101717.31;5088548;28;20552;-75
2023/04/29 05:36:57;;;;;;;44.25;23.42;;;13.10;99.90;;;13.43;85.95;101726.13;5114932;28;20055;-76
2023/04/29 05:39:27;;;;;;;36.63;22.52;;;13.10;99.90;;;13.26;85.71;101698.72;5088357;28;20489;-76
2023/04/29 05:42:05;;;;;;;41.22;23.55;;;13.10;99.90;;;13.37;85.84;101734.13;5096509;28;20408;-76
2023/04/29 05:44:41;;;;;;;45.30;24.30;;;13.10;99.90;;;13.33;86.17;101732.38;5084859;28;20046;-75
2023/04/29 05:47:09;;;;;;;36.22;23.10;;;13.10;99.90;;;13.33;86.17;101721.75;5114682;28;20039;-75
2023/04/29 05:49:39;;;;;;;45.13;24.15;;;13.10;99.90;;;13.45;86.01;101739.44;5096125;28;20134;-76
2023/04/29 05:52:08;;;;;;;36.85;23.23;;;13.30;99.90;;;13.40;86.66;101739.44;5087258;28;20083;-76
2023/04/29 05:54:43;;;;;;;41.55;24.42;;;13.10;99.90;;;13.39;86.25;101750.06;5096044;28;20143;-75
2023/04/29 05:57:12;;;;;;;37.13;24.17;;;13.10;99.90;;;13.40;86.37;101750.06;5084180;28;20134;-76
2023/04/29 05:59:41;;;;;;;42.92;25.67;;;13.10;99.90;;;13.39;86.38;101758.91;5088663;28;20044;-75
2023/04/29 06:02:10;;;;;;;46.45;25.45;;;13.10;99.90;;;13.23;86.54;101735.03;5114098;28;20040;-76
2023/04/29 06:04:41;;;;;;;39.55;25.60;;;13.10;99.90;;;13.40;86.54;101771.31;5086935;28;20048;-76
2023/04/29 06:07:21;;;;;;;41.38;26.17;;;13.10;99.90;;;13.32;85.74;101765.13;5095788;28;20044;-76
2023/04/29 06:09:56;;;;;;;43.85;28.02;;;13.10;99.90;;;13.41;85.83;101780.19;5083683;28;20114;-75
2023/04/29 06:12:26;;;;;;;49.38;28.10;;;13.10;99.90;;;13.44;85.80;101783.72;5087224;28;20047;-76
2023/04/29 06:14:55;;;;;;;44.45;28.13;;;13.20;99.90;;;12.86;85.88;101686.34;5095186;28;20146;-75
2023/04/29 06:17:23;;;;;;;42.83;26.63;;;13.20;99.90;;;13.47;86.14;101789.03;5086917;28;20588;-75
2023/04/29 06:19:54;;;;;;;44.47;27.75;;;13.20;99.90;;;13.49;86.03;101789.91;5095066;28;20043;-76
2023/04/29 06:22:24;;;;;;;44.25;26.98;;;13.20;99.90;;;13.47;85.39;101783.69;5087334;28;20055;-77
2023/04/29 06:24:56;;;;;;;46.17;26.77;;;13.30;99.90;;;13.43;85.47;101783.72;5095204;28;20044;-77
2023/04/29 06:27:38;;;;;;;43.28;26.75;;;13.20;99.90;;;13.52;85.54;101797.91;5077239;28;20572;-77
2023/04/29 06:30:08;;;;;;;41.88;25.70;;;13.30;99.90;;;13.57;84.87;101795.19;5094961;28;20488;-74
2023/04/29 06:32:38;;;;;;;39.35;26.05;;;13.30;99.90;;;13.51;84.45;101793.44;5083274;28;20044;-74
2023/04/29 06:35:08;;;;;;;37.85;25.33;;;13.30;99.90;;;13.17;83.81;101743.00;5082625;28;20391;-74
2023/04/29 06:38:09;;;;;;;38.90;24.48;;;13.30;99.90;;;13.42;83.49;101773.97;5092697;28;20039;-74
2023/04/29 06:41:14;;;;;;;34.47;24.02;;;13.30;99.90;;;13.56;83.23;101804.97;5030090;28;20065;-78
2023/04/29 06:43:59;;;;;;;31.15;20.60;;;13.40;99.90;;;13.68;81.45;101808.50;5083023;28;20075;-73
2023/04/29 06:46:48;;;;;;;32.17;20.58;;;13.40;99.90;;;13.78;80.93;101818.22;5108247;28;20070;-74
2023/04/29 06:49:20;;;;;;;27.40;19.08;;;13.50;99.90;;;13.78;80.26;101827.06;5094272;28;20044;-72
2023/04/29 06:51:49;;;;;;;30.77;20.65;;;13.60;99.90;;;13.95;80.26;101824.38;5086450;28;20516;-72
2023/04/29 06:54:20;;;;;;;30.15;19.58;;;13.70;99.90;;;13.97;78.91;101833.25;5094879;28;20051;-74
2023/04/29 06:56:52;;;;;;;26.15;18.80;;;13.70;99.90;;;14.16;78.83;101834.94;5086457;28;20071;-73
2023/04/29 06:59:20;;;;;;;30.58;20.23;;;13.90;99.90;;;14.29;77.39;101837.59;5112718;28;20074;-71
2023/04/29 07:01:48;;;;;;;27.60;19.27;;;14.00;99.90;;;14.52;77.90;101842.81;5112597;28;20039;-74
2023/04/29 07:04:20;;;;;;;25.23;19.35;;;14.20;99.90;;;14.67;77.35;101840.09;5094646;28;20454;-74
2023/04/29 07:06:49;;;;;;;25.35;18.55;;;14.50;99.90;;;14.97;76.27;101855.88;5112744;28;20108;-72
2023/04/29 07:09:19;;;;;;;30.40;18.15;;;14.70;99.90;;;15.18;76.05;101862.81;5094141;28;20054;-71
2023/04/29 07:11:48;;;;;;;24.88;16.95;;;15.00;99.90;;;15.25;73.91;101862.75;5086122;28;20051;-74
2023/04/29 07:14:22;;;;;;;23.10;17.08;;;15.10;99.90;;;15.35;72.62;101872.47;5094257;28;20075;-74
2023/04/29 07:16:54;;;;;;;22.17;15.18;;;15.20;99.90;;;15.43;72.45;101871.56;5082279;28;20470;-74
2023/04/29 07:19:23;;;;;;;25.10;15.80;;;15.20;99.90;;;15.50;72.25;101874.16;5074755;28;20050;-70
2023/04/29 07:21:52;;;;;;;24.70;16.75;;;15.30;99.90;;;15.59;71.33;101863.41;5112278;28;20040;-72
2023/04/29 07:24:22;;;;;;;21.25;14.98;;;15.40;99.90;;;15.83;71.87;101876.50;5112420;28;20393;-75
2023/04/29 07:26:50;;;;;;;23.17;14.90;;;15.60;99.90;;;15.46;70.10;101882.19;5094093;28;20100;-75
2023/04/29 07:29:21;;;;;;;20.85;13.30;;;15.40;99.90;;;15.68;69.87;101878.47;5112452;28;20293;-76
2023/04/29 07:31:52;;;;;;;20.15;13.05;;;15.50;99.90;;;15.06;70.41;101886.91;5094278;28;20044;-77
2023/04/29 07:34:25;;;;;;;22.40;13.65;;;14.90;99.90;;;15.45;72.11;101877.78;5082185;28;20056;-76
2023/04/29 07:36:57;;;;;;;16.95;12.90;;;15.20;99.90;;;15.33;70.74;101884.03;5109781;28;20088;-87
2023/04/29 07:39:25;;;;;;;21.98;13.40;;;15.10;99.90;;;15.04;69.93;101830.94;5094022;28;20122;-80
2023/04/29 07:41:56;;;;;;;19.58;13.32;;;15.10;99.90;;;14.80;70.65;101891.50;5086106;28;20049;-79
2023/04/29 07:44:26;;;;;;;22.55;13.40;;;14.70;99.90;;;15.28;71.98;101893.84;5094116;28;20048;-77
2023/04/29 07:46:54;;;;;;;20.90;13.38;;;15.00;99.90;;;15.56;71.18;101886.56;5086118;28;20047;-79
2023/04/29 07:49:24;;;;;;;18.60;12.80;;;15.30;99.90;;;15.67;69.50;101882.91;5094178;28;20085;-78
2023/04/29 07:51:53;;;;;;;19.85;12.48;;;15.50;99.90;;;15.80;69.39;101879.22;5081999;28;20405;-78
2023/04/29 07:54:22;;;;;;;20.95;12.52;;;15.60;99.90;;;16.01;69.19;101895.00;5112500;28;20044;-82
2023/04/29 07:56:51;;;;;;;17.73;12.43;;;15.80;99.90;;;16.21;68.73;101895.69;5094244;28;20054;-81
2023/04/29 07:59:20;;;;;;;17.40;12.43;;;16.00;99.90;;;16.32;68.09;101892.88;5086262;28;20134;-78
2023/04/29 08:01:51;;;;;;;17.15;12.23;;;16.10;99.90;;;16.36;67.60;101896.41;5112565;28;20067;-74
2023/04/29 08:04:20;;;;;;;19.92;13.35;;;16.20;99.90;;;16.47;66.94;101894.50;5085652;28;20066;-74
2023/04/29 08:06:56;;;;;;;19.95;12.48;;;16.30;99.90;;;16.46;66.07;101901.63;5090394;28;20058;-74
2023/04/29 08:09:24;;;;;;;22.67;12.40;;;16.30;99.90;;;16.49;65.57;101898.94;5094485;28;20485;-73
2023/04/29 08:11:52;;;;;;;18.65;12.30;;;16.30;99.90;;;16.52;66.19;101898.91;5085691;28;20484;-73
2023/04/29 08:14:21;;;;;;;19.73;12.20;;;16.40;99.90;;;16.56;66.43;101900.66;5093888;28;20058;-71
2023/04/29 08:16:51;;;;;;;21.23;12.48;;;16.40;99.90;;;16.61;66.65;101909.47;5112637;28;20046;-75
2023/04/29 08:19:20;;;;;;;27.17;14.33;;;16.40;99.90;;;16.23;67.15;101909.03;5111926;28;20457;-71
2023/04/29 08:21:50;;;;;;;21.02;12.55;;;16.10;99.90;;;16.24;66.77;101914.34;5112008;28;20384;-70
2023/04/29 08:24:21;;;;;;;18.42;12.13;;;16.10;99.90;;;16.30;67.14;101925.88;5112020;28;20035;-70
2023/04/29 08:26:50;;;;;;;23.75;12.73;;;16.10;99.90;;;16.41;67.86;101919.50;5108105;28;20127;-73
2023/04/29 08:29:18;;;;;;;22.02;12.07;;;16.20;99.90;;;16.51;67.64;101920.31;5115464;28;20063;-72
2023/04/29 08:31:46;;;;;;;19.23;12.25;;;16.30;99.90;;;16.30;65.85;101924.06;5115892;28;20043;-79
2023/04/29 08:34:16;;;;;;;19.65;11.52;;;16.10;99.90;;;16.34;65.56;101932.94;5116307;28;20059;-72
2023/04/29 08:36:46;;;;;;;19.20;11.65;;;16.10;99.90;;;16.21;66.15;101925.06;5115737;28;20078;-77
2023/04/29 08:39:14;;;;;;;22.83;12.82;;;16.10;99.90;;;16.42;67.06;101931.94;5115829;28;20040;-73
2023/04/29 08:41:48;;;;;;;19.35;11.48;;;16.20;99.90;;;16.63;67.06;101923.72;5115619;28;20051;-70
2023/04/29 08:44:16;;;;;;;19.90;12.00;;;16.40;99.90;;;16.95;66.83;101929.53;5115541;28;20047;-69
2023/04/29 08:46:46;;;;;;;20.50;11.68;;;16.70;99.90;;;17.14;65.55;101925.69;5111699;28;20048;-72
2023/04/29 08:49:16;;;;;;;18.15;11.60;;;16.90;99.90;;;17.23;64.94;101921.13;5115496;28;20040;-73
2023/04/29 08:51:45;;;;;;;16.73;10.43;;;17.10;99.90;;;17.41;64.24;101923.50;5115075;28;20059;-76
2023/04/29 08:54:13;;;;;;;17.15;10.35;;;17.20;99.90;;;17.58;63.07;101932.19;5115186;28;20130;-73
2023/04/29 08:56:46;;;;;;;15.50;10.85;;;17.40;99.90;;;17.68;62.02;101936.47;5115000;28;20472;-62
2023/04/29 08:59:18;;;;;;;15.20;10.40;;;17.50;99.90;;;17.82;61.80;101934.47;5115506;28;20643;-62
2023/04/29 09:01:51;;;;;;;13.88;10.35;;;17.70;99.90;;;17.92;61.05;101930.72;5089388;28;20044;-64
2023/04/29 09:04:34;;;;;;;18.45;10.85;;;17.80;99.90;;;17.92;60.55;101911.97;5115062;28;20036;-65
2023/04/29 09:07:04;;;;;;;21.10;10.50;;;17.90;99.90;;;18.23;60.73;101942.66;5085227;28;20051;-65
2023/04/29 09:09:33;;;;;;;17.67;10.65;;;18.00;99.90;;;18.26;59.46;101941.69;5115406;28;20476;-71
2023/04/29 09:12:01;;;;;;;14.55;10.18;;;18.10;99.90;;;18.36;59.93;101936.13;5111079;28;20438;-73
2023/04/29 09:14:33;;;;;;;17.23;10.45;;;18.20;99.90;;;18.13;57.93;101933.00;5096736;28;20044;-72
2023/04/29 09:17:01;;;;;;;19.55;10.50;;;18.00;99.90;;;18.17;59.00;101942.75;5115187;28;20050;-70
2023/04/29 09:19:33;;;;;;;17.88;11.27;;;18.00;99.90;;;18.32;59.63;101944.25;5114783;28;20047;-74
2023/04/29 09:22:03;;;;;;;15.32;10.85;;;18.10;99.90;;;18.34;58.15;101946.00;5115385;28;20469;-71
2023/04/29 09:24:32;;;;;;;16.97;10.27;;;18.20;99.90;;;18.32;57.30;101946.94;5114591;28;20047;-70
2023/04/29 09:27:02;;;;;;;15.45;10.98;;;18.20;99.90;;;18.35;58.07;101950.44;5096562;28;20075;-70
2023/04/29 09:29:31;;;;;;;18.97;12.47;;;18.20;99.90;;;18.22;56.74;101943.53;5111421;28;20434;-69
2023/04/29 09:32:00;;;;;;;13.87;10.80;;;18.20;99.90;;;18.25;57.61;101956.91;5115098;28;20312;-72
2023/04/29 09:34:37;;;;;;;15.95;11.55;;;18.20;99.90;;;18.05;56.73;101956.38;5114863;28;20286;-73
2023/04/29 09:37:23;;;;;;;15.90;10.93;;;18.00;99.90;;;18.02;57.77;101949.25;5114757;28;20070;-70
2023/04/29 09:39:52;;;;;;;16.55;11.13;;;17.90;99.90;;;18.18;58.15;101948.97;5111003;28;20390;-70
2023/04/29 09:42:20;;;;;;;17.92;11.10;;;18.10;99.90;;;18.29;58.23;101957.72;5096197;28;20058;-69
2023/04/29 09:44:49;;;;;;;18.42;12.35;;;18.20;99.90;;;18.14;57.51;101958.88;5114535;28;20047;-70
2023/04/29 09:47:17;;;;;;;17.65;11.07;;;18.10;99.90;;;17.92;57.72;101961.03;5114316;28;20040;-66
2023/04/29 09:49:48;;;;;;;16.65;10.82;;;17.90;99.90;;;18.26;59.19;101966.69;5114501;28;20093;-64
2023/04/29 09:52:17;;;;;;;13.65;10.30;;;18.10;99.90;;;18.33;58.22;101964.78;5109851;28;20055;-65
2023/04/29 09:54:45;;;;;;;15.50;9.98;;;18.20;99.90;;;18.51;58.13;101959.97;5092291;28;20117;-62
2023/04/29 09:57:14;;;;;;;15.02;11.18;;;18.40;99.90;;;18.79;56.81;101968.38;5095823;28;20161;-66
2023/04/29 09:59:43;;;;;;;13.98;10.20;;;18.70;99.90;;;18.92;56.58;101970.75;5114094;28;20043;-69
2023/04/29 10:02:16;;;;;;;13.52;9.77;;;18.80;99.90;;;18.98;55.89;101982.25;5114348;28;20441;-68
2023/04/29 10:04:49;;;;;;;16.70;9.68;;;18.80;99.90;;;18.93;55.93;101963.56;5113911;28;20040;-68
2023/04/29 10:07:19;;;;;;;15.30;10.07;;;18.90;99.90;;;19.13;55.41;101992.66;5114120;28;20046;-68
2023/04/29 10:09:48;;;;;;;11.73;8.95;;;19.00;99.90;;;19.11;55.04;102000.75;5110353;28;20485;-67
2023/04/29 10:12:18;;;;;;;13.88;9.48;;;19.00;99.90;;;19.30;55.53;101995.88;5114235;28;20040;-68
2023/04/29 10:14:55;;;;;;;14.47;9.97;;;19.10;99.90;;;19.18;53.59;101991.63;5113996;28;20043;-76
2023/04/29 10:17:34;;;;;;;15.18;10.20;;;19.10;99.90;;;19.34;53.63;101997.59;5095623;28;20450;-76